This is the latest recevied weather packets stored in our database for station/object SQ4IXR-4. If no packets are shown the sender has not sent any weather packets the latest 10 day(s).
| Time | Temp. | Humidity | Pressure | Rain* | Wind** | Luminosity | Snow |
|---|---|---|---|---|---|---|---|
| 1777816303 | 27.78° C | 19% | 1017 hPa | - | - | - | - |
| 1777815483 | 28.33° C | 18% | 1017.3 hPa | - | - | - | - |
| 1777814658 | 29.44° C | 17% | 1017.3 hPa | - | - | - | - |
| 1777813836 | 30° C | 17% | 1017.3 hPa | - | - | - | - |
| 1777813011 | 29.44° C | 17% | 1017.5 hPa | - | - | - | - |
| 1777812200 | 32.22° C | 15% | 1017.5 hPa | - | - | - | - |
| 1777811389 | 41.67° C | 9% | 1017.1 hPa | - | - | - | - |
| 1777810571 | 41.67° C | 8% | 1017.2 hPa | - | - | - | - |
| 1777809750 | 44.44° C | 7% | 1017.3 hPa | - | - | - | - |
| 1777808916 | 41.67° C | 8% | 1017.4 hPa | - | - | - | - |
| 1777808085 | 37.78° C | 11% | 1018 hPa | - | - | - | - |
| 1777807255 | 29.44° C | 17% | 1018.6 hPa | - | - | - | - |
| 1777806437 | 32.78° C | 14% | 1018.5 hPa | - | - | - | - |
| 1777805613 | 33.89° C | 14% | 1018.5 hPa | - | - | - | - |
| 1777804785 | 30.56° C | 16% | 1018.8 hPa | - | - | - | - |
| 1777803138 | 32.22° C | 14% | 1018.9 hPa | - | - | - | - |
| 1777802315 | 31.11° C | 15% | 1019.1 hPa | - | - | - | - |
| 1777801492 | 32.22° C | 15% | 1019.1 hPa | - | - | - | - |
| 1777800666 | 29.44° C | 17% | 1019.5 hPa | - | - | - | - |
| 1777799848 | 30.56° C | 16% | 1019.5 hPa | - | - | - | - |
| 1777799038 | 37.78° C | 12% | 1019.2 hPa | - | - | - | - |
| 1777798235 | 43.89° C | 8% | 1019 hPa | - | - | - | - |
| 1777797420 | 55° C | 4% | 1018.6 hPa | - | - | - | - |
| 1777796602 | 58.89° C | 3% | 1018.6 hPa | - | - | - | - |
| 1777795784 | 62.78° C | 2% | 1018.6 hPa | - | - | - | - |
* Rain since midnight (hover to see other rain measurements)
** Current wind speed in m/s (hover to see current wind gust speed)